Seattle, Washington
Traffic Map
Current Weather Conditions
Seattle, Washington
Broken Clouds Light Rain
Broken Clouds
66°
Feels Like: 66°
Wind Chill: 66° Ceiling: 11000
Heat Index: 66° Visibility: 10mi
Dew Point: 57° Wind: 0mph
Humidity: 73% Direction: ° ()
Pressure: 30.01in Gusts: 0mph
Raw Report DataKBFI 230753Z 00000KT 10SM -RA FEW095 BKN110 19/14 A3001 RMK AO2 RAB23 SLP162 P0000 T01890139 402280150
Traffic Incident Summary
Active as of:
Severity:
Category:
InformationThere was an issue retrieving the traffic information for this location. Please try a different location or try again shortly.
Advertisements
Track Severe Weather on mobile